Time;durP1;ratioP1;P1;durP2;ratioP2;P2;SDS_P1;SDS_P2;PMS_P1;PMS_P2;Temp;Humidity;BMP_temperature;BMP_pressure;BME280_temperature;BME280_humidity;BME280_pressure;Samples;Min_cycle;Max_cycle;Signal;HPM_P1;HPM_P2
2022/08/02 00:01:10;;;;;;;;;;;21.40;90.20;;;;;;5041033;28;19964;-75
2022/08/02 00:03:36;;;;;;;;;;;21.40;90.30;;;;;;5035966;28;20029;-75
2022/08/02 00:06:03;;;;;;;;;;;21.40;90.40;;;;;;5041756;28;19975;-76
2022/08/02 00:08:30;;;;;;;;;;;21.40;90.30;;;;;;5041756;28;20024;-76
2022/08/02 00:10:57;;;;;;;;;;;21.30;90.30;;;;;;5035867;28;20283;-75
2022/08/02 00:13:25;;;;;;;;;;;21.30;90.30;;;;;;5025889;28;20161;-76
2022/08/02 00:15:52;;;;;;;;;;;21.30;90.30;;;;;;5042936;28;19925;-77
2022/08/02 00:18:19;;;;;;;;;;;21.30;90.30;;;;;;5038014;28;19924;-76
2022/08/02 00:20:45;;;;;;;;;;;21.30;90.40;;;;;;5041738;28;19925;-77
2022/08/02 00:23:12;;;;;;;;;;;21.30;90.40;;;;;;5040995;28;19933;-75
2022/08/02 00:25:39;;;;;;;;;;;21.30;90.30;;;;;;5040743;28;19925;-77
2022/08/02 00:28:06;;;;;;;;;;;21.20;90.30;;;;;;5025241;28;20200;-76
2022/08/02 00:30:34;;;;;;;;;;;21.20;90.30;;;;;;5047567;28;19928;-76
2022/08/02 00:33:01;;;;;;;;;;;21.20;90.30;;;;;;5040284;28;19925;-77
2022/08/02 00:35:28;;;;;;;;;;;21.20;90.40;;;;;;5043523;28;19948;-77
2022/08/02 00:37:55;;;;;;;;;;;21.20;90.50;;;;;;5042772;28;19928;-77
2022/08/02 00:40:22;;;;;;;;;;;21.10;90.30;;;;;;5040256;28;19964;-77
2022/08/02 00:43:00;;;;;;;;;;;21.10;90.40;;;;;;5040976;28;19935;-79
2022/08/02 00:45:26;;;;;;;;;;;21.40;90.50;;;;;;5043162;28;20428;-77
2022/08/02 00:47:54;;;;;;;;;;;21.10;90.30;;;;;;5043234;28;19960;-77
2022/08/02 00:50:21;;;;;;;;;;;21.10;90.30;;;;;;5039541;28;19925;-77
2022/08/02 00:52:48;;;;;;;;;;;21.00;90.30;;;;;;5039298;28;19964;-77
2022/08/02 00:55:15;;;;;;;;;;;21.10;90.30;;;;;;5040653;28;20015;-77
2022/08/02 00:57:42;;;;;;;;;;;21.00;90.30;;;;;;5035525;28;19951;-77
2022/08/02 01:00:09;;;;;;;;;;;21.00;90.30;;;;;;5018392;28;19933;-76
2022/08/02 01:02:36;;;;;;;;;;;21.00;90.40;;;;;;5041618;28;19975;-76
2022/08/02 01:05:05;;;;;;;;;;;21.00;90.40;;;;;;5037906;28;19933;-77
2022/08/02 01:07:32;;;;;;;;;;;21.00;90.40;;;;;;5041468;28;19933;-77
2022/08/02 01:09:59;;;;;;;;;;;20.90;90.40;;;;;;5037028;28;19925;-77
2022/08/02 01:12:25;;;;;;;;;;;20.90;90.40;;;;;;5043088;28;19931;-78
2022/08/02 01:14:53;;;;;;;;;;;20.90;90.30;;;;;;5041313;28;20066;-77
2022/08/02 01:17:26;;;;;;;;;;;20.90;90.40;;;;;;5039684;28;20020;-77
2022/08/02 01:19:57;;;;;;;;;;;20.80;90.30;;;;;;5025033;28;19948;-78
2022/08/02 01:22:42;;;;;;;;;;;20.80;90.40;;;;;;5040875;28;19933;-78
2022/08/02 01:25:26;;;;;;;;;;;20.80;90.50;;;;;;5036775;28;20012;-77
2022/08/02 01:28:04;;;;;;;;;;;20.80;90.60;;;;;;5040782;28;19925;-78
2022/08/02 01:30:34;;;;;;;;;;;20.80;90.60;;;;;;5040243;28;19972;-77
2022/08/02 01:33:03;;;;;;;;;;;20.80;90.70;;;;;;5041256;28;19964;-76
2022/08/02 01:35:33;;;;;;;;;;;20.80;90.80;;;;;;5039617;28;19928;-75
2022/08/02 01:38:04;;;;;;;;;;;20.70;90.50;;;;;;5037818;28;20188;-78
2022/08/02 01:40:32;;;;;;;;;;;20.70;90.80;;;;;;5040888;28;20353;-77
2022/08/02 01:42:59;;;;;;;;;;;20.70;90.80;;;;;;5040303;28;19976;-77
2022/08/02 01:45:30;;;;;;;;;;;20.70;90.70;;;;;;5027943;28;20016;-76
2022/08/02 01:47:58;;;;;;;;;;;20.70;90.70;;;;;;5036652;28;19975;-76
2022/08/02 01:50:27;;;;;;;;;;;20.60;90.60;;;;;;5037959;28;19976;-75
2022/08/02 01:52:56;;;;;;;;;;;20.60;90.60;;;;;;5041948;28;20019;-78
2022/08/02 01:55:25;;;;;;;;;;;20.60;90.60;;;;;;5017946;28;19932;-75
2022/08/02 01:57:53;;;;;;;;;;;20.60;90.90;;;;;;5041234;28;20350;-76
2022/08/02 02:00:21;;;;;;;;;;;20.60;90.50;;;;;;5040834;28;19925;-75
2022/08/02 02:02:50;;;;;;;;;;;20.60;90.60;;;;;;5040960;28;19925;-75
2022/08/02 02:05:19;;;;;;;;;;;20.50;90.50;;;;;;5035230;28;19928;-77
2022/08/02 02:07:46;;;;;;;;;;;;;;;;;;5041094;28;19939;-77
2022/08/02 02:10:15;;;;;;;;;;;20.50;90.30;;;;;;5036093;28;19982;-76
2022/08/02 02:12:43;;;;;;;;;;;20.50;90.50;;;;;;5035639;28;19929;-76
2022/08/02 02:15:11;;;;;;;;;;;20.50;90.60;;;;;;5040164;28;19931;-77
2022/08/02 02:17:39;;;;;;;;;;;20.50;90.70;;;;;;5041567;28;20461;-76
2022/08/02 02:20:09;;;;;;;;;;;20.40;90.60;;;;;;5041069;28;20138;-76
2022/08/02 02:22:36;;;;;;;;;;;20.40;90.60;;;;;;5037338;28;19929;-76
2022/08/02 02:25:03;;;;;;;;;;;20.40;90.60;;;;;;5039697;28;19983;-77
2022/08/02 02:27:30;;;;;;;;;;;20.40;90.60;;;;;;5041352;28;20468;-77
2022/08/02 02:29:57;;;;;;;;;;;20.40;90.60;;;;;;5044725;28;19925;-76
2022/08/02 02:32:24;;;;;;;;;;;20.40;90.60;;;;;;5037240;28;19937;-77
2022/08/02 02:34:53;;;;;;;;;;;20.30;90.60;;;;;;5038381;28;20694;-77
2022/08/02 02:37:23;;;;;;;;;;;20.30;90.60;;;;;;5044250;28;20474;-77
2022/08/02 02:39:50;;;;;;;;;;;20.30;90.60;;;;;;5040091;28;20302;-77
2022/08/02 02:42:18;;;;;;;;;;;20.30;90.60;;;;;;5037270;28;19933;-76
2022/08/02 02:44:46;;;;;;;;;;;20.30;90.60;;;;;;5044759;28;19936;-77
2022/08/02 02:47:14;;;;;;;;;;;20.30;90.60;;;;;;5042276;28;19974;-78
2022/08/02 02:49:42;;;;;;;;;;;20.20;90.90;;;;;;5039947;28;19938;-77
2022/08/02 02:52:10;;;;;;;;;;;20.20;90.70;;;;;;5038771;28;19933;-77
2022/08/02 02:54:38;;;;;;;;;;;20.20;90.70;;;;;;5043859;28;19975;-76
2022/08/02 03:02:02;;;;;;;;;;;20.20;90.80;;;;;;4980342;28;19926;-78
2022/08/02 03:04:30;;;;;;;;;;;20.10;90.70;;;;;;4963243;28;19927;-76
2022/08/02 03:06:57;;;;;;;;;;;20.10;90.80;;;;;;4963490;28;19941;-77
2022/08/02 03:09:24;;;;;;;;;;;20.10;90.80;;;;;;4954947;28;20389;-77
2022/08/02 03:11:52;;;;;;;;;;;20.10;90.70;;;;;;4941486;28;19984;-77
2022/08/02 03:14:20;;;;;;;;;;;20.10;90.90;;;;;;4963147;28;19933;-77
2022/08/02 03:16:47;;;;;;;;;;;20.10;90.90;;;;;;4952237;28;19934;-78
2022/08/02 03:19:14;;;;;;;;;;;20.00;90.80;;;;;;4964814;28;19944;-77
2022/08/02 03:21:41;;;;;;;;;;;20.00;90.80;;;;;;4961587;28;19930;-76
2022/08/02 03:24:08;;;;;;;;;;;20.00;90.80;;;;;;4960208;28;19926;-75
2022/08/02 03:26:35;;;;;;;;;;;20.00;90.80;;;;;;4952143;28;19980;-75
2022/08/02 03:29:04;;;;;;;;;;;20.00;90.80;;;;;;4961049;28;19932;-74
2022/08/02 03:31:30;;;;;;;;;;;19.90;90.80;;;;;;4965059;28;19926;-74
2022/08/02 03:33:58;;;;;;;;;;;20.00;90.80;;;;;;4962353;28;19926;-74
2022/08/02 03:36:27;;;;;;;;;;;19.90;90.80;;;;;;4944298;28;21583;-74
2022/08/02 03:38:54;;;;;;;;;;;19.90;90.80;;;;;;4961250;28;20350;-74
2022/08/02 03:41:22;;;;;;;;;;;19.90;90.90;;;;;;4963503;28;19933;-73
2022/08/02 03:43:50;;;;;;;;;;;19.90;91.00;;;;;;4939092;28;20282;-74
2022/08/02 03:46:19;;;;;;;;;;;19.90;91.00;;;;;;4951918;28;19934;-75
2022/08/02 03:48:46;;;;;;;;;;;19.80;91.00;;;;;;4958104;28;19938;-74
2022/08/02 03:51:14;;;;;;;;;;;19.80;91.00;;;;;;4944074;28;19934;-73
2022/08/02 03:53:44;;;;;;;;;;;19.80;91.00;;;;;;4954175;28;20397;-75
2022/08/02 03:56:11;;;;;;;;;;;19.80;91.00;;;;;;4942543;28;19942;-75
2022/08/02 03:58:38;;;;;;;;;;;19.80;91.00;;;;;;4948109;28;19930;-74
2022/08/02 04:01:05;;;;;;;;;;;19.80;91.00;;;;;;4953442;28;20352;-74
2022/08/02 04:03:34;;;;;;;;;;;19.80;91.10;;;;;;4948153;28;19958;-74
2022/08/02 04:06:01;;;;;;;;;;;19.80;91.40;;;;;;4969296;28;19937;-75
2022/08/02 04:08:28;;;;;;;;;;;19.70;91.10;;;;;;4965985;28;19933;-74
2022/08/02 04:13:39;;;;;;;;;;;19.70;91.10;;;;;;4956900;28;20068;-75
2022/08/02 04:16:10;;;;;;;;;;;19.70;91.10;;;;;;4962815;28;19934;-75
2022/08/02 04:18:43;;;;;;;;;;;19.70;91.00;;;;;;4957190;28;19930;-75
2022/08/02 04:21:13;;;;;;;;;;;19.60;91.00;;;;;;4956739;28;19966;-75
2022/08/02 04:23:42;;;;;;;;;;;19.60;91.00;;;;;;4956893;28;19933;-74
2022/08/02 04:26:09;;;;;;;;;;;19.60;91.10;;;;;;4955443;28;19981;-75
2022/08/02 04:28:36;;;;;;;;;;;19.60;91.00;;;;;;4940429;28;20250;-75
2022/08/02 04:31:03;;;;;;;;;;;19.60;91.10;;;;;;4951792;28;20304;-74
2022/08/02 04:33:30;;;;;;;;;;;19.60;90.90;;;;;;4933186;28;19926;-74
2022/08/02 04:35:59;;;;;;;;;;;19.60;90.90;;;;;;4942287;28;20460;-74
2022/08/02 04:38:26;;;;;;;;;;;19.60;90.90;;;;;;4944934;28;19927;-75
2022/08/02 04:40:54;;;;;;;;;;;19.60;90.90;;;;;;4952811;28;20224;-75
2022/08/02 04:43:21;;;;;;;;;;;19.50;90.80;;;;;;4953565;28;20483;-74
2022/08/02 04:45:49;;;;;;;;;;;19.50;90.70;;;;;;4955685;28;19935;-75
2022/08/02 04:48:15;;;;;;;;;;;19.50;90.70;;;;;;4953816;28;19984;-74
2022/08/02 04:50:42;;;;;;;;;;;19.50;90.70;;;;;;4953949;28;19981;-75
2022/08/02 04:53:10;;;;;;;;;;;19.50;90.70;;;;;;4953736;28;19933;-74
2022/08/02 04:55:37;;;;;;;;;;;19.50;90.70;;;;;;4952407;28;20025;-74
2022/08/02 04:58:04;;;;;;;;;;;19.50;90.70;;;;;;4945023;28;19970;-74
2022/08/02 05:00:31;;;;;;;;;;;19.40;90.60;;;;;;4952968;28;19981;-75
2022/08/02 05:02:58;;;;;;;;;;;19.50;90.60;;;;;;4950454;28;19935;-75
2022/08/02 05:05:26;;;;;;;;;;;19.40;90.60;;;;;;4957891;28;19933;-75
2022/08/02 05:07:53;;;;;;;;;;;19.40;90.60;;;;;;4952470;28;19957;-75
2022/08/02 05:10:21;;;;;;;;;;;19.40;90.60;;;;;;4938170;28;19953;-75
2022/08/02 05:12:48;;;;;;;;;;;19.40;90.60;;;;;;4950313;28;20286;-75
2022/08/02 05:15:16;;;;;;;;;;;19.40;90.70;;;;;;4955409;28;19933;-75
2022/08/02 05:17:43;;;;;;;;;;;19.40;90.70;;;;;;4952623;28;19926;-75
2022/08/02 05:20:12;;;;;;;;;;;19.40;90.70;;;;;;4953323;28;19927;-74
2022/08/02 05:22:38;;;;;;;;;;;19.40;90.70;;;;;;4948287;28;19930;-75
2022/08/02 05:25:06;;;;;;;;;;;19.30;90.70;;;;;;4957660;28;19927;-76
2022/08/02 05:27:34;;;;;;;;;;;19.30;90.70;;;;;;4950140;28;19937;-75
2022/08/02 05:30:01;;;;;;;;;;;19.30;90.80;;;;;;4951317;28;19941;-75
2022/08/02 05:32:28;;;;;;;;;;;19.30;91.00;;;;;;4956847;28;19936;-77
2022/08/02 05:34:55;;;;;;;;;;;19.30;91.00;;;;;;4946887;28;19926;-75
2022/08/02 05:37:22;;;;;;;;;;;19.30;91.00;;;;;;4960005;28;20048;-74
2022/08/02 05:39:49;;;;;;;;;;;19.30;91.10;;;;;;4952020;28;20411;-75
2022/08/02 05:42:15;;;;;;;;;;;19.30;91.20;;;;;;4956322;28;19937;-75
2022/08/02 05:44:44;;;;;;;;;;;19.30;91.20;;;;;;4949779;28;20227;-75
2022/08/02 05:47:11;;;;;;;;;;;19.30;91.20;;;;;;4934353;28;19934;-73
2022/08/02 05:49:37;;;;;;;;;;;19.30;91.10;;;;;;4945989;28;19934;-74
2022/08/02 05:52:09;;;;;;;;;;;19.30;91.20;;;;;;4952829;28;19953;-74
2022/08/02 05:54:37;;;;;;;;;;;19.30;91.90;;;;;;4962251;28;19930;-74
2022/08/02 05:57:05;;;;;;;;;;;19.20;91.90;;;;;;4963156;28;20017;-75
2022/08/02 05:59:33;;;;;;;;;;;19.20;92.10;;;;;;4961910;28;19927;-75
2022/08/02 06:02:03;;;;;;;;;;;19.10;92.40;;;;;;4951124;28;20331;-75
2022/08/02 06:04:33;;;;;;;;;;;19.00;92.40;;;;;;4965625;28;19966;-73
2022/08/02 06:07:03;;;;;;;;;;;19.00;92.50;;;;;;4969956;28;20435;-75
2022/08/02 06:09:30;;;;;;;;;;;19.00;92.40;;;;;;4961992;28;19933;-75
2022/08/02 06:11:58;;;;;;;;;;;19.00;92.40;;;;;;4964134;28;19930;-74
2022/08/02 06:14:26;;;;;;;;;;;19.00;92.40;;;;;;4966099;28;19926;-74
2022/08/02 06:16:53;;;;;;;;;;;19.00;92.40;;;;;;4968677;28;19937;-75
2022/08/02 06:19:22;;;;;;;;;;;19.00;92.40;;;;;;4965602;28;20403;-74
2022/08/02 06:21:49;;;;;;;;;;;19.00;92.30;;;;;;4960252;28;19973;-74
2022/08/02 06:24:17;;;;;;;;;;;19.10;92.40;;;;;;4962769;28;20012;-74
2022/08/02 06:26:44;;;;;;;;;;;19.10;92.30;;;;;;4969908;28;20273;-75
2022/08/02 06:29:12;;;;;;;;;;;19.10;92.40;;;;;;4968026;28;20381;-74
2022/08/02 06:31:40;;;;;;;;;;;19.10;92.30;;;;;;4965876;28;19975;-75
2022/08/02 06:34:07;;;;;;;;;;;19.10;92.30;;;;;;4965210;28;20021;-74
2022/08/02 06:36:38;;;;;;;;;;;19.10;92.20;;;;;;4971079;28;19981;-75
2022/08/02 06:39:08;;;;;;;;;;;19.10;92.30;;;;;;4966531;28;20021;-75
2022/08/02 06:41:38;;;;;;;;;;;19.20;92.30;;;;;;4966882;28;20312;-75
2022/08/02 06:44:12;;;;;;;;;;;19.20;92.30;;;;;;4950776;28;19980;-74
2022/08/02 06:46:39;;;;;;;;;;;19.20;92.30;;;;;;4970874;28;20208;-75
2022/08/02 06:49:06;;;;;;;;;;;19.20;92.40;;;;;;4964373;28;19926;-75
2022/08/02 06:51:33;;;;;;;;;;;19.30;92.40;;;;;;4963947;28;19954;-74
2022/08/02 06:54:01;;;;;;;;;;;19.30;92.40;;;;;;4963262;28;19926;-76
2022/08/02 06:56:28;;;;;;;;;;;19.30;92.50;;;;;;4968791;28;19984;-74
2022/08/02 06:58:58;;;;;;;;;;;19.30;92.50;;;;;;4967071;28;19980;-74
2022/08/02 07:01:25;;;;;;;;;;;19.30;92.40;;;;;;4963378;28;19929;-74
2022/08/02 07:03:51;;;;;;;;;;;19.30;92.40;;;;;;4968477;28;20364;-75
2022/08/02 07:06:18;;;;;;;;;;;19.30;92.30;;;;;;4967069;28;19930;-74
2022/08/02 07:08:45;;;;;;;;;;;19.40;92.30;;;;;;4962634;28;19932;-75
2022/08/02 07:11:13;;;;;;;;;;;19.40;92.40;;;;;;4968261;28;19927;-75
2022/08/02 07:13:40;;;;;;;;;;;19.40;92.40;;;;;;4966243;28;19926;-75
2022/08/02 07:16:07;;;;;;;;;;;19.40;92.40;;;;;;4972017;28;19937;-74
2022/08/02 07:18:34;;;;;;;;;;;19.40;92.40;;;;;;4956619;28;19933;-75
2022/08/02 07:21:03;;;;;;;;;;;19.40;92.40;;;;;;4951591;28;19931;-75
2022/08/02 07:23:30;;;;;;;;;;;19.40;92.50;;;;;;4964466;28;19948;-75
2022/08/02 07:25:56;;;;;;;;;;;19.50;92.50;;;;;;4971114;28;20237;-75
2022/08/02 07:28:25;;;;;;;;;;;19.50;92.50;;;;;;4951487;28;19981;-74
2022/08/02 07:30:51;;;;;;;;;;;19.50;92.50;;;;;;4969656;28;20645;-74
2022/08/02 07:33:18;;;;;;;;;;;19.50;92.50;;;;;;4969339;28;19926;-74
2022/08/02 07:35:45;;;;;;;;;;;19.50;92.60;;;;;;4964418;28;19973;-74
2022/08/02 07:38:12;;;;;;;;;;;19.50;92.70;;;;;;4964826;28;20348;-75
2022/08/02 07:40:39;;;;;;;;;;;19.50;92.60;;;;;;4972529;28;19977;-74
2022/08/02 07:43:06;;;;;;;;;;;19.60;92.70;;;;;;4952406;28;19985;-74
2022/08/02 07:45:34;;;;;;;;;;;19.60;92.60;;;;;;4971466;28;20057;-74
2022/08/02 07:48:01;;;;;;;;;;;19.60;92.60;;;;;;4961617;28;19972;-75
2022/08/02 07:50:28;;;;;;;;;;;19.60;92.60;;;;;;4966253;28;19945;-74
2022/08/02 07:52:55;;;;;;;;;;;19.60;92.60;;;;;;4968494;28;19933;-75
2022/08/02 07:55:22;;;;;;;;;;;19.60;92.60;;;;;;4969188;28;19930;-74
2022/08/02 07:57:49;;;;;;;;;;;19.60;92.70;;;;;;4963997;28;20324;-75
2022/08/02 08:00:17;;;;;;;;;;;19.60;92.70;;;;;;4968942;28;19989;-74
2022/08/02 08:02:45;;;;;;;;;;;19.70;92.80;;;;;;4964752;28;19948;-75
2022/08/02 08:05:12;;;;;;;;;;;19.70;93.10;;;;;;4967743;28;19930;-75
2022/08/02 08:07:39;;;;;;;;;;;19.70;93.30;;;;;;4954985;28;20820;-74
2022/08/02 08:10:07;;;;;;;;;;;19.80;93.50;;;;;;4967746;28;19988;-74
2022/08/02 08:12:34;;;;;;;;;;;19.80;93.60;;;;;;4964108;28;19930;-74
2022/08/02 08:15:01;;;;;;;;;;;19.80;93.70;;;;;;4969388;28;19934;-75
2022/08/02 08:17:27;;;;;;;;;;;19.80;93.80;;;;;;4963028;28;20397;-75
2022/08/02 08:19:56;;;;;;;;;;;19.80;93.70;;;;;;4968209;28;20017;-75
2022/08/02 08:22:23;;;;;;;;;;;19.80;93.70;;;;;;4966833;28;20397;-75
2022/08/02 08:24:50;;;;;;;;;;;19.80;93.70;;;;;;4962790;28;20026;-75
2022/08/02 08:27:18;;;;;;;;;;;19.80;93.70;;;;;;4964847;28;19941;-74
2022/08/02 08:29:45;;;;;;;;;;;19.80;93.70;;;;;;4970737;28;19973;-75
2022/08/02 08:32:13;;;;;;;;;;;19.80;93.70;;;;;;4963209;28;19926;-75
2022/08/02 08:34:40;;;;;;;;;;;19.90;93.80;;;;;;4964663;28;20032;-75
2022/08/02 08:37:08;;;;;;;;;;;19.90;93.90;;;;;;4961826;28;19926;-75
2022/08/02 08:39:35;;;;;;;;;;;19.90;93.90;;;;;;4961093;28;19977;-75
2022/08/02 08:42:02;;;;;;;;;;;19.90;93.90;;;;;;4963368;28;20360;-74
2022/08/02 08:44:29;;;;;;;;;;;19.90;93.90;;;;;;4965410;28;19930;-74
2022/08/02 08:46:56;;;;;;;;;;;19.90;93.90;;;;;;4961788;28;19976;-74
2022/08/02 08:49:27;;;;;;;;;;;19.90;93.90;;;;;;4969200;28;20316;-75
2022/08/02 08:51:55;;;;;;;;;;;19.90;94.00;;;;;;4963782;28;20297;-74
2022/08/02 08:54:23;;;;;;;;;;;20.00;94.00;;;;;;4968395;28;20373;-74
2022/08/02 08:56:51;;;;;;;;;;;20.00;94.00;;;;;;4960082;28;20845;-76
2022/08/02 08:59:18;;;;;;;;;;;20.00;94.00;;;;;;4968065;28;19926;-75
2022/08/02 09:01:45;;;;;;;;;;;20.00;94.00;;;;;;4960428;28;19989;-75
2022/08/02 09:04:12;;;;;;;;;;;20.00;94.00;;;;;;4969007;28;19926;-75
2022/08/02 09:06:39;;;;;;;;;;;20.00;94.00;;;;;;4960151;28;20450;-75
2022/08/02 09:09:06;;;;;;;;;;;20.00;94.00;;;;;;4960084;28;19930;-74
2022/08/02 09:11:34;;;;;;;;;;;20.10;94.00;;;;;;4963159;28;20415;-75
2022/08/02 09:14:02;;;;;;;;;;;20.10;94.00;;;;;;4967003;28;20389;-75
2022/08/02 09:16:30;;;;;;;;;;;20.10;94.10;;;;;;4957670;28;19934;-74
2022/08/02 09:18:57;;;;;;;;;;;20.10;94.10;;;;;;4963851;28;19926;-73
2022/08/02 09:21:24;;;;;;;;;;;20.10;94.10;;;;;;4961367;28;20355;-75
2022/08/02 09:23:51;;;;;;;;;;;20.10;94.20;;;;;;4965379;28;20391;-75
2022/08/02 09:26:19;;;;;;;;;;;20.10;94.10;;;;;;4966639;28;20389;-75
2022/08/02 09:28:48;;;;;;;;;;;20.10;94.20;;;;;;4967568;28;20029;-75
2022/08/02 09:31:16;;;;;;;;;;;20.10;94.20;;;;;;4945132;28;19926;-74
2022/08/02 09:33:45;;;;;;;;;;;20.20;94.30;;;;;;4966474;28;19933;-75
2022/08/02 09:36:12;;;;;;;;;;;20.20;94.20;;;;;;4965437;28;20302;-75
2022/08/02 09:38:39;;;;;;;;;;;20.20;94.30;;;;;;4960603;28;19938;-75
2022/08/02 09:41:06;;;;;;;;;;;20.20;94.30;;;;;;4965425;28;20312;-75
2022/08/02 09:43:38;;;;;;;;;;;20.30;94.30;;;;;;4953229;28;19926;-75
2022/08/02 09:46:13;;;;;;;;;;;20.30;94.30;;;;;;4967013;28;19926;-75
2022/08/02 09:48:50;;;;;;;;;;;20.30;94.40;;;;;;4967828;28;19933;-75
2022/08/02 09:51:17;;;;;;;;;;;20.40;94.50;;;;;;4945031;28;19934;-75
2022/08/02 09:53:44;;;;;;;;;;;20.40;94.50;;;;;;4970075;28;20021;-75
2022/08/02 09:56:11;;;;;;;;;;;20.40;94.50;;;;;;4966724;28;19926;-74
2022/08/02 09:58:38;;;;;;;;;;;20.40;94.60;;;;;;4965839;28;19930;-74
2022/08/02 10:01:05;;;;;;;;;;;20.50;94.70;;;;;;4968674;28;19926;-75
2022/08/02 10:03:34;;;;;;;;;;;20.50;94.60;;;;;;4970044;28;19934;-75
2022/08/02 10:06:01;;;;;;;;;;;20.50;94.60;;;;;;4969308;28;19926;-76
2022/08/02 10:08:28;;;;;;;;;;;20.50;94.60;;;;;;4963158;28;19930;-75
2022/08/02 10:11:00;;;;;;;;;;;20.50;94.60;;;;;;4968741;28;19926;-75
2022/08/02 10:13:28;;;;;;;;;;;20.50;94.60;;;;;;4970815;28;20101;-75
2022/08/02 10:15:55;;;;;;;;;;;20.60;94.60;;;;;;4966713;28;20028;-75
2022/08/02 10:18:22;;;;;;;;;;;20.60;94.60;;;;;;4967811;28;19930;-75
2022/08/02 10:20:51;;;;;;;;;;;20.60;94.60;;;;;;4954736;28;19957;-76
2022/08/02 10:23:19;;;;;;;;;;;20.60;94.60;;;;;;4972009;28;19946;-75
2022/08/02 10:25:47;;;;;;;;;;;20.60;94.50;;;;;;4963439;28;19934;-75
2022/08/02 10:28:15;;;;;;;;;;;20.60;94.50;;;;;;4969148;28;20203;-75
2022/08/02 10:30:43;;;;;;;;;;;20.70;94.50;;;;;;4975833;28;19930;-75
2022/08/02 10:33:10;;;;;;;;;;;20.70;94.50;;;;;;4969931;28;20405;-74
2022/08/02 10:35:38;;;;;;;;;;;20.70;94.50;;;;;;4962948;28;20012;-76
2022/08/02 10:38:08;;;;;;;;;;;20.70;94.40;;;;;;4968442;28;19930;-75
2022/08/02 10:40:42;;;;;;;;;;;20.70;94.40;;;;;;4962810;28;19964;-74
2022/08/02 10:43:09;;;;;;;;;;;20.70;94.50;;;;;;4968187;28;19965;-75
2022/08/02 10:45:36;;;;;;;;;;;20.80;94.50;;;;;;4969808;28;19926;-75
2022/08/02 10:48:04;;;;;;;;;;;20.80;94.50;;;;;;4966622;28;20748;-74
2022/08/02 10:50:52;;;;;;;;;;;20.80;94.40;;;;;;4970842;28;20123;-75
2022/08/02 10:53:22;;;;;;;;;;;20.80;94.40;;;;;;4965772;28;20008;-75
2022/08/02 10:55:49;;;;;;;;;;;20.80;94.50;;;;;;4966996;28;19926;-75
2022/08/02 10:58:17;;;;;;;;;;;20.90;94.50;;;;;;4967454;28;19934;-75
2022/08/02 11:00:44;;;;;;;;;;;20.90;94.50;;;;;;4964246;28;19997;-76
2022/08/02 11:03:33;;;;;;;;;;;20.90;94.50;;;;;;4971089;28;20444;-75
2022/08/02 11:06:01;;;;;;;;;;;21.00;94.50;;;;;;4964069;28;20393;-75
2022/08/02 11:08:29;;;;;;;;;;;21.00;94.50;;;;;;4961986;28;19926;-75
2022/08/02 11:10:58;;;;;;;;;;;21.00;94.50;;;;;;4965594;28;20009;-74
2022/08/02 11:13:25;;;;;;;;;;;21.00;94.50;;;;;;4952934;28;19954;-75
2022/08/02 11:15:57;;;;;;;;;;;21.10;94.60;;;;;;4967881;28;20348;-75
2022/08/02 11:18:59;;;;;;;;;;;21.10;94.60;;;;;;4968303;28;19930;-74
2022/08/02 11:21:27;;;;;;;;;;;21.10;94.60;;;;;;4947557;28;19934;-74
2022/08/02 11:23:55;;;;;;;;;;;21.20;94.60;;;;;;4968922;28;19969;-75
2022/08/02 11:26:41;;;;;;;;;;;21.20;94.60;;;;;;4950308;28;19989;-75
2022/08/02 11:29:07;;;;;;;;;;;21.20;94.50;;;;;;4968466;28;19973;-75
2022/08/02 11:31:39;;;;;;;;;;;21.20;94.40;;;;;;4962047;28;19973;-73
2022/08/02 11:34:06;;;;;;;;;;;21.20;94.40;;;;;;4965947;28;19965;-73
2022/08/02 11:36:32;;;;;;;;;;;21.30;94.40;;;;;;4964837;28;19926;-74
2022/08/02 11:39:10;;;;;;;;;;;21.30;94.40;;;;;;4950407;28;19927;-75
2022/08/02 11:41:37;;;;;;;;;;;21.30;94.30;;;;;;4965958;28;19972;-73
2022/08/02 11:44:04;;;;;;;;;;;21.40;94.30;;;;;;4971252;28;19937;-74
2022/08/02 11:46:31;;;;;;;;;;;21.40;94.20;;;;;;4963660;28;19937;-75
2022/08/02 11:48:58;;;;;;;;;;;21.40;94.20;;;;;;4965206;28;19988;-74
2022/08/02 11:51:24;;;;;;;;;;;21.40;94.10;;;;;;4964292;28;20380;-75
2022/08/02 11:53:52;;;;;;;;;;;21.50;94.10;;;;;;4968585;28;20260;-74
2022/08/02 11:56:26;;;;;;;;;;;21.50;94.00;;;;;;4965130;28;20025;-74
2022/08/02 11:59:03;;;;;;;;;;;21.50;93.90;;;;;;4970856;28;19926;-74
2022/08/02 12:01:30;;;;;;;;;;;;;;;;;;4967317;28;20423;-74
2022/08/02 12:03:59;;;;;;;;;;;21.60;93.60;;;;;;4964591;28;20418;-74
2022/08/02 12:06:27;;;;;;;;;;;21.60;93.90;;;;;;4963270;28;19926;-74
2022/08/02 12:08:58;;;;;;;;;;;21.60;93.90;;;;;;4955044;28;20400;-74
2022/08/02 12:11:26;;;;;;;;;;;21.70;93.70;;;;;;4947694;28;19983;-75
2022/08/02 12:13:53;;;;;;;;;;;21.70;93.90;;;;;;4968652;28;20448;-75
2022/08/02 12:19:19;;;;;;;;;;;21.80;93.80;;;;;;4959473;28;19922;-74
2022/08/02 12:21:46;;;;;;;;;;;21.80;93.70;;;;;;4948232;28;19933;-74
2022/08/02 12:24:13;;;;;;;;;;;21.80;93.60;;;;;;4964170;28;19930;-74
2022/08/02 12:26:45;;;;;;;;;;;21.90;93.70;;;;;;4962298;28;20108;-75
2022/08/02 12:29:12;;;;;;;;;;;21.90;93.70;;;;;;4968420;28;19957;-74
2022/08/02 12:31:40;;;;;;;;;;;21.90;93.70;;;;;;4963807;28;19989;-74
2022/08/02 12:34:13;;;;;;;;;;;22.00;93.80;;;;;;4964628;28;19926;-75
2022/08/02 12:36:40;;;;;;;;;;;22.00;93.80;;;;;;4967227;28;20275;-75
2022/08/02 12:39:11;;;;;;;;;;;22.10;93.70;;;;;;4947162;28;19986;-75
2022/08/02 12:41:37;;;;;;;;;;;22.10;93.70;;;;;;4961428;28;20294;-75
2022/08/02 12:44:14;;;;;;;;;;;22.20;93.70;;;;;;4967650;28;20381;-75
2022/08/02 12:46:41;;;;;;;;;;;22.20;93.70;;;;;;4964559;28;20384;-75
2022/08/02 12:49:14;;;;;;;;;;;22.30;93.70;;;;;;4962199;28;19926;-73
2022/08/02 12:51:41;;;;;;;;;;;22.30;93.70;;;;;;4965633;28;19934;-74
2022/08/02 12:54:12;;;;;;;;;;;22.30;93.70;;;;;;4966151;28;19926;-75
2022/08/02 12:56:39;;;;;;;;;;;22.40;93.70;;;;;;4960174;28;20037;-75
2022/08/02 12:59:07;;;;;;;;;;;22.40;93.70;;;;;;4964897;28;20408;-76
2022/08/02 13:01:34;;;;;;;;;;;22.50;93.80;;;;;;4942372;28;19930;-75
2022/08/02 13:04:01;;;;;;;;;;;22.50;93.70;;;;;;4962751;28;19930;-74
2022/08/02 13:06:28;;;;;;;;;;;22.60;93.70;;;;;;4965974;28;19926;-76
2022/08/02 13:08:55;;;;;;;;;;;22.70;93.80;;;;;;4965309;28;19926;-75
2022/08/02 13:11:23;;;;;;;;;;;22.70;93.80;;;;;;4965400;28;19954;-76
2022/08/02 13:13:49;;;;;;;;;;;22.70;93.70;;;;;;4967077;28;19926;-75
2022/08/02 13:16:18;;;;;;;;;;;22.80;93.70;;;;;;4964222;28;19957;-75
2022/08/02 13:18:45;;;;;;;;;;;22.90;93.70;;;;;;4959807;28;20333;-75
2022/08/02 13:21:12;;;;;;;;;;;22.90;93.70;;;;;;4965528;28;20378;-75
2022/08/02 13:23:38;;;;;;;;;;;23.00;93.70;;;;;;4962602;28;19954;-74
2022/08/02 13:26:05;;;;;;;;;;;23.00;93.60;;;;;;4959610;28;20378;-75
2022/08/02 13:28:34;;;;;;;;;;;23.10;93.50;;;;;;4968007;28;19926;-74
2022/08/02 13:31:02;;;;;;;;;;;23.10;93.50;;;;;;4963440;28;20202;-75
2022/08/02 13:33:30;;;;;;;;;;;23.20;93.50;;;;;;4963481;28;19969;-75
2022/08/02 13:35:58;;;;;;;;;;;23.20;93.50;;;;;;4964201;28;19934;-75
2022/08/02 13:38:24;;;;;;;;;;;23.30;93.20;;;;;;4965209;28;20422;-75
2022/08/02 13:41:09;;;;;;;;;;;23.40;93.00;;;;;;4958808;28;19937;-74
2022/08/02 13:43:36;;;;;;;;;;;23.40;92.90;;;;;;4965226;28;19989;-75
2022/08/02 13:46:04;;;;;;;;;;;23.50;93.00;;;;;;4962674;28;19934;-75
2022/08/02 13:48:32;;;;;;;;;;;23.50;93.00;;;;;;4963507;28;19926;-75
2022/08/02 13:50:59;;;;;;;;;;;23.60;93.10;;;;;;4958430;28;19926;-75
2022/08/02 13:53:26;;;;;;;;;;;23.60;93.00;;;;;;4969352;28;20008;-76
2022/08/02 13:55:53;;;;;;;;;;;23.70;92.80;;;;;;4956970;28;20033;-76
2022/08/02 13:58:20;;;;;;;;;;;23.70;92.80;;;;;;4965331;28;19930;-75
2022/08/02 14:00:46;;;;;;;;;;;23.70;92.90;;;;;;4965421;28;19930;-75
2022/08/02 14:03:13;;;;;;;;;;;23.80;93.00;;;;;;4967918;28;19957;-75
2022/08/02 14:05:42;;;;;;;;;;;23.80;93.00;;;;;;4959173;28;19962;-75
2022/08/02 14:08:09;;;;;;;;;;;23.80;92.90;;;;;;4967337;28;19953;-75
2022/08/02 14:10:36;;;;;;;;;;;23.90;92.90;;;;;;4962213;28;20420;-75
2022/08/02 14:13:02;;;;;;;;;;;23.90;92.90;;;;;;4966486;28;20680;-75
2022/08/02 14:15:30;;;;;;;;;;;24.00;93.00;;;;;;4959907;28;19926;-75
2022/08/02 14:17:56;;;;;;;;;;;24.00;92.90;;;;;;4960818;28;19930;-74
2022/08/02 14:20:23;;;;;;;;;;;24.00;92.90;;;;;;4962073;28;19973;-75
2022/08/02 14:22:52;;;;;;;;;;;24.10;92.90;;;;;;4964557;28;20274;-74
2022/08/02 14:25:19;;;;;;;;;;;24.10;92.90;;;;;;4958350;28;19930;-75
2022/08/02 14:27:46;;;;;;;;;;;24.20;93.00;;;;;;4963645;28;20487;-75
2022/08/02 14:30:13;;;;;;;;;;;24.20;92.80;;;;;;4963057;28;20022;-75
2022/08/02 14:32:39;;;;;;;;;;;24.30;92.80;;;;;;4963566;28;20345;-76
2022/08/02 14:35:06;;;;;;;;;;;24.30;92.90;;;;;;4968516;28;20008;-76